FDX9900 KBNA-KOMA
Flight info
| Callsign | FDX9900 |
|---|---|
| Flight time | 1h 38m |
| Altitude | 36000 |
| Route | PARDN4 NAKIY SLVER DIXEE LMN MARWI4 |
| Aircraft | A306/H-SDE3FGHIRWY/LB1 |
Departure
| Time | 2026-05-04 11:53 |
|---|---|
| Airport | Nashville International Airport (KBNA) |
Arrival
| Time | 2026-05-04 13:32 |
|---|---|
| Airport | Eppley Airfield (KOMA) |
| Time | Latitude | Longitude | Altitude | Speed | Heading |
|---|---|---|---|---|---|
| 2026-05-04 11:31 | 36.12757 | -86.68620 | 588 ft | 0 kts | 285° |
| 2026-05-04 11:38 | 36.12756 | -86.68612 | 588 ft | 4 kts | 286° |
| 2026-05-04 11:39 | 36.12748 | -86.68580 | 589 ft | 4 kts | 286° |
| 2026-05-04 11:39 | 36.12742 | -86.68555 | 589 ft | 4 kts | 287° |
| 2026-05-04 11:40 | 36.12786 | -86.68506 | 590 ft | 0 kts | 198° |
| 2026-05-04 11:43 | 36.12780 | -86.68509 | 590 ft | 5 kts | 198° |
| 2026-05-04 11:43 | 36.12723 | -86.68531 | 590 ft | 11 kts | 198° |
| 2026-05-04 11:43 | 36.12639 | -86.68565 | 590 ft | 13 kts | 198° |
| 2026-05-04 11:43 | 36.12570 | -86.68561 | 592 ft | 8 kts | 140° |
| 2026-05-04 11:44 | 36.12535 | -86.68525 | 593 ft | 7 kts | 152° |
| 2026-05-04 11:44 | 36.12468 | -86.68534 | 596 ft | 13 kts | 196° |
| 2026-05-04 11:44 | 36.12365 | -86.68574 | 599 ft | 19 kts | 197° |
| 2026-05-04 11:44 | 36.12223 | -86.68631 | 602 ft | 24 kts | 201° |
| 2026-05-04 11:45 | 36.12066 | -86.68693 | 625 ft | 22 kts | 200° |
| 2026-05-04 11:45 | 36.11930 | -86.68748 | 624 ft | 19 kts | 197° |
| 2026-05-04 11:45 | 36.11828 | -86.68765 | 622 ft | 9 kts | 144° |
| 2026-05-04 11:45 | 36.11790 | -86.68687 | 620 ft | 13 kts | 107° |
| 2026-05-04 11:46 | 36.11763 | -86.68584 | 622 ft | 12 kts | 109° |
| 2026-05-04 11:46 | 36.11708 | -86.68523 | 622 ft | 15 kts | 146° |
| 2026-05-04 11:46 | 36.11568 | -86.68435 | 593 ft | 30 kts | 153° |
| 2026-05-04 11:46 | 36.11381 | -86.68310 | 589 ft | 22 kts | 135° |
| 2026-05-04 11:47 | 36.11426 | -86.68215 | 589 ft | 15 kts | 20° |
| 2026-05-04 11:47 | 36.11556 | -86.68158 | 590 ft | 23 kts | 17° |
| 2026-05-04 11:47 | 36.11732 | -86.68087 | 588 ft | 30 kts | 18° |
| 2026-05-04 11:47 | 36.11954 | -86.67995 | 588 ft | 36 kts | 19° |
| 2026-05-04 11:48 | 36.12169 | -86.67909 | 590 ft | 33 kts | 18° |
| 2026-05-04 11:48 | 36.12332 | -86.67843 | 590 ft | 13 kts | 14° |
| 2026-05-04 11:48 | 36.12392 | -86.67893 | 589 ft | 10 kts | 295° |
| 2026-05-04 11:48 | 36.12394 | -86.67958 | 588 ft | 6 kts | 241° |
| 2026-05-04 11:49 | 36.12365 | -86.67984 | 588 ft | 0 kts | 202° |
| 2026-05-04 11:51 | 36.12366 | -86.67984 | 588 ft | 0 kts | 202° |
| 2026-05-04 11:52 | 36.12352 | -86.67990 | 588 ft | 14 kts | 199° |
| 2026-05-04 11:53 | 36.11961 | -86.68144 | 588 ft | 103 kts | 197° |
| 2026-05-04 11:53 | 36.11013 | -86.68525 | 665 ft | 179 kts | 198° |
| 2026-05-04 11:53 | 36.09663 | -86.69020 | 1267 ft | 223 kts | 196° |
| 2026-05-04 11:53 | 36.08026 | -86.69554 | 2045 ft | 258 kts | 199° |
| 2026-05-04 11:55 | 35.95358 | -86.74567 | 9348 ft | 271 kts | 236° |
| 2026-05-04 11:55 | 35.94596 | -86.76685 | 10366 ft | 273 kts | 257° |
| 2026-05-04 11:56 | 35.94551 | -86.79035 | 11297 ft | 278 kts | 279° |
| 2026-05-04 11:56 | 35.95264 | -86.81260 | 12243 ft | 283 kts | 301° |
| 2026-05-04 11:56 | 35.96537 | -86.83134 | 13220 ft | 287 kts | 311° |
| 2026-05-04 11:56 | 35.97949 | -86.84899 | 14113 ft | 290 kts | 313° |
| 2026-05-04 11:57 | 35.99376 | -86.86671 | 14946 ft | 292 kts | 312° |
| 2026-05-04 11:57 | 36.00798 | -86.88463 | 15784 ft | 293 kts | 311° |
| 2026-05-04 11:57 | 36.02220 | -86.90274 | 16625 ft | 294 kts | 311° |
| 2026-05-04 11:57 | 36.03639 | -86.92095 | 17449 ft | 296 kts | 311° |
| 2026-05-04 11:58 | 36.05070 | -86.93937 | 18261 ft | 297 kts | 311° |
| 2026-05-04 11:58 | 36.06504 | -86.95788 | 18946 ft | 299 kts | 311° |
| 2026-05-04 11:58 | 36.07946 | -86.97653 | 19636 ft | 301 kts | 311° |
| 2026-05-04 11:58 | 36.09399 | -86.99532 | 20316 ft | 303 kts | 311° |
| 2026-05-04 11:59 | 36.10861 | -87.01422 | 20998 ft | 305 kts | 311° |
| 2026-05-04 11:59 | 36.12330 | -87.03325 | 21683 ft | 307 kts | 311° |
| 2026-05-04 11:59 | 36.13805 | -87.05236 | 22355 ft | 309 kts | 311° |
| 2026-05-04 11:59 | 36.15293 | -87.07165 | 23014 ft | 311 kts | 311° |
| 2026-05-04 12:00 | 36.16790 | -87.09107 | 23666 ft | 313 kts | 311° |
| 2026-05-04 12:00 | 36.18298 | -87.11063 | 24180 ft | 316 kts | 310° |
| 2026-05-04 12:00 | 36.19819 | -87.13038 | 24698 ft | 318 kts | 310° |
| 2026-05-04 12:00 | 36.21333 | -87.15003 | 25206 ft | 321 kts | 310° |
| 2026-05-04 12:01 | 36.22897 | -87.17033 | 25766 ft | 322 kts | 310° |
| 2026-05-04 12:01 | 36.24434 | -87.19031 | 26429 ft | 319 kts | 310° |
| 2026-05-04 12:02 | 36.28940 | -87.33628 | 30132 ft | 302 kts | 281° |
| 2026-05-04 12:03 | 36.29345 | -87.36183 | 30613 ft | 301 kts | 281° |
| 2026-05-04 12:03 | 36.29748 | -87.38714 | 31108 ft | 298 kts | 281° |
| 2026-05-04 12:03 | 36.30149 | -87.41228 | 31617 ft | 296 kts | 281° |
| 2026-05-04 12:03 | 36.30547 | -87.43714 | 32084 ft | 294 kts | 281° |
| 2026-05-04 12:04 | 36.30944 | -87.46188 | 32537 ft | 292 kts | 282° |
| 2026-05-04 12:04 | 36.31422 | -87.48624 | 32979 ft | 290 kts | 285° |
| 2026-05-04 12:04 | 36.32077 | -87.50982 | 33391 ft | 289 kts | 290° |
| 2026-05-04 12:04 | 36.32924 | -87.53246 | 33800 ft | 289 kts | 295° |
| 2026-05-04 12:05 | 36.33885 | -87.55434 | 34157 ft | 289 kts | 296° |
| 2026-05-04 12:05 | 36.34868 | -87.57608 | 34414 ft | 290 kts | 296° |
| 2026-05-04 12:05 | 36.35856 | -87.59790 | 34640 ft | 292 kts | 296° |
| 2026-05-04 12:05 | 36.36855 | -87.62001 | 34791 ft | 297 kts | 296° |
| 2026-05-04 12:06 | 36.38933 | -87.66619 | 34801 ft | 316 kts | 296° |
| 2026-05-04 12:06 | 36.41140 | -87.71533 | 34799 ft | 336 kts | 296° |
| 2026-05-04 12:07 | 36.43473 | -87.76737 | 34794 ft | 354 kts | 296° |
| 2026-05-04 12:07 | 36.45919 | -87.82197 | 34946 ft | 368 kts | 296° |
| 2026-05-04 12:08 | 36.47171 | -87.84995 | 35065 ft | 373 kts | 296° |
| 2026-05-04 12:08 | 36.48436 | -87.87825 | 35187 ft | 377 kts | 297° |
| 2026-05-04 12:08 | 36.49720 | -87.90699 | 35303 ft | 382 kts | 297° |
| 2026-05-04 12:08 | 36.51014 | -87.93601 | 35411 ft | 387 kts | 297° |
| 2026-05-04 12:09 | 36.52323 | -87.96538 | 35539 ft | 391 kts | 297° |
| 2026-05-04 12:09 | 36.53644 | -87.99505 | 35678 ft | 394 kts | 297° |
| 2026-05-04 12:09 | 36.54972 | -88.02489 | 35910 ft | 395 kts | 297° |
| 2026-05-04 12:09 | 36.56303 | -88.05482 | 35935 ft | 395 kts | 297° |
| 2026-05-04 12:10 | 36.58962 | -88.11471 | 35942 ft | 395 kts | 297° |
| 2026-05-04 12:10 | 36.61615 | -88.17461 | 35941 ft | 395 kts | 297° |
| 2026-05-04 12:11 | 36.64314 | -88.23420 | 35943 ft | 396 kts | 300° |
| 2026-05-04 12:11 | 36.67684 | -88.28884 | 35943 ft | 399 kts | 306° |
| 2026-05-04 12:12 | 36.71277 | -88.34157 | 35941 ft | 399 kts | 307° |
| 2026-05-04 12:12 | 36.74888 | -88.39410 | 35942 ft | 399 kts | 307° |
| 2026-05-04 12:14 | 36.89173 | -88.60568 | 35903 ft | 399 kts | 306° |
| 2026-05-04 12:15 | 36.92740 | -88.65882 | 35906 ft | 399 kts | 306° |
| 2026-05-04 12:15 | 36.96309 | -88.71205 | 35912 ft | 399 kts | 306° |
| 2026-05-04 12:16 | 36.99873 | -88.76529 | 35913 ft | 399 kts | 306° |
| 2026-05-04 12:16 | 37.03435 | -88.81861 | 35895 ft | 399 kts | 306° |
| 2026-05-04 12:17 | 37.06997 | -88.87199 | 35915 ft | 399 kts | 306° |
| 2026-05-04 12:17 | 37.10556 | -88.92543 | 35912 ft | 399 kts | 306° |
| 2026-05-04 12:18 | 37.14114 | -88.97893 | 35893 ft | 399 kts | 306° |
| 2026-05-04 12:18 | 37.17667 | -89.03246 | 35901 ft | 399 kts | 306° |
| 2026-05-04 12:19 | 37.21214 | -89.08598 | 35899 ft | 399 kts | 306° |
| 2026-05-04 12:19 | 37.24766 | -89.13966 | 35903 ft | 399 kts | 306° |
| 2026-05-04 12:20 | 37.28313 | -89.19335 | 35900 ft | 399 kts | 306° |
| 2026-05-04 12:20 | 37.31857 | -89.24707 | 35894 ft | 400 kts | 306° |
| 2026-05-04 12:21 | 37.35399 | -89.30085 | 35888 ft | 400 kts | 306° |
| 2026-05-04 12:21 | 37.38920 | -89.35440 | 35886 ft | 400 kts | 306° |
| 2026-05-04 12:22 | 37.42458 | -89.40832 | 35885 ft | 400 kts | 306° |
| 2026-05-04 12:22 | 37.45993 | -89.46226 | 35887 ft | 400 kts | 306° |
| 2026-05-04 12:23 | 37.49526 | -89.51625 | 35880 ft | 400 kts | 306° |
| 2026-05-04 12:23 | 37.53057 | -89.57032 | 35879 ft | 400 kts | 306° |
| 2026-05-04 12:24 | 37.56585 | -89.62444 | 35875 ft | 400 kts | 306° |
| 2026-05-04 12:24 | 37.60114 | -89.67864 | 35874 ft | 400 kts | 306° |
| 2026-05-04 12:25 | 37.63639 | -89.73286 | 35873 ft | 400 kts | 306° |
| 2026-05-04 12:25 | 37.67161 | -89.78714 | 35871 ft | 400 kts | 306° |
| 2026-05-04 12:26 | 37.70677 | -89.84143 | 35872 ft | 399 kts | 306° |
| 2026-05-04 12:26 | 37.74192 | -89.89577 | 35872 ft | 399 kts | 306° |
| 2026-05-04 12:27 | 37.77702 | -89.95013 | 35868 ft | 399 kts | 306° |
| 2026-05-04 12:27 | 37.81215 | -90.00461 | 35873 ft | 399 kts | 306° |
| 2026-05-04 12:28 | 37.84724 | -90.05916 | 35870 ft | 400 kts | 306° |
| 2026-05-04 12:28 | 37.88228 | -90.11372 | 35867 ft | 400 kts | 306° |
| 2026-05-04 12:29 | 37.91736 | -90.16841 | 35864 ft | 400 kts | 306° |
| 2026-05-04 12:29 | 37.95240 | -90.22314 | 35866 ft | 400 kts | 306° |
| 2026-05-04 12:30 | 37.98741 | -90.27791 | 35860 ft | 400 kts | 306° |
| 2026-05-04 12:30 | 38.02251 | -90.33265 | 35864 ft | 400 kts | 306° |
| 2026-05-04 12:31 | 38.05753 | -90.38689 | 35852 ft | 400 kts | 306° |
| 2026-05-04 12:31 | 38.09279 | -90.44153 | 35845 ft | 400 kts | 306° |
| 2026-05-04 12:32 | 38.14560 | -90.52362 | 35838 ft | 400 kts | 306° |
| 2026-05-04 12:33 | 38.18080 | -90.57850 | 35830 ft | 400 kts | 306° |
| 2026-05-04 12:33 | 38.21599 | -90.63347 | 35826 ft | 401 kts | 306° |
| 2026-05-04 12:34 | 38.25117 | -90.68846 | 35822 ft | 401 kts | 306° |
| 2026-05-04 12:34 | 38.28632 | -90.74351 | 35816 ft | 401 kts | 306° |
| 2026-05-04 12:35 | 38.32147 | -90.79868 | 35819 ft | 401 kts | 306° |
| 2026-05-04 12:35 | 38.35662 | -90.85395 | 35813 ft | 401 kts | 306° |
| 2026-05-04 12:36 | 38.39172 | -90.90922 | 35814 ft | 401 kts | 306° |
| 2026-05-04 12:36 | 38.42681 | -90.96457 | 35818 ft | 401 kts | 306° |
| 2026-05-04 12:37 | 38.46190 | -91.02000 | 35820 ft | 402 kts | 306° |
| 2026-05-04 12:37 | 38.49696 | -91.07549 | 35824 ft | 402 kts | 306° |
| 2026-05-04 12:38 | 38.53182 | -91.13075 | 35819 ft | 402 kts | 306° |
| 2026-05-04 12:38 | 38.56691 | -91.18648 | 35815 ft | 402 kts | 306° |
| 2026-05-04 12:39 | 38.59844 | -91.23107 | 35811 ft | 405 kts | 310° |
| 2026-05-04 12:39 | 38.63736 | -91.28249 | 35803 ft | 405 kts | 310° |
| 2026-05-04 12:40 | 38.67688 | -91.33445 | 35795 ft | 405 kts | 310° |
| 2026-05-04 12:40 | 38.71595 | -91.38586 | 35785 ft | 405 kts | 310° |
| 2026-05-04 12:41 | 38.75529 | -91.43768 | 35780 ft | 406 kts | 310° |
| 2026-05-04 12:41 | 38.79462 | -91.48959 | 35773 ft | 406 kts | 310° |
| 2026-05-04 12:42 | 38.83344 | -91.54083 | 35770 ft | 390 kts | 310° |
| 2026-05-04 12:42 | 38.87067 | -91.59012 | 35628 ft | 381 kts | 310° |
| 2026-05-04 12:42 | 38.88904 | -91.61448 | 35086 ft | 378 kts | 310° |
| 2026-05-04 12:43 | 38.90725 | -91.63865 | 34953 ft | 378 kts | 310° |
| 2026-05-04 12:43 | 38.94448 | -91.68817 | 34954 ft | 392 kts | 310° |
| 2026-05-04 12:44 | 38.98300 | -91.73946 | 34951 ft | 405 kts | 310° |
| 2026-05-04 12:44 | 39.02246 | -91.79202 | 34946 ft | 410 kts | 310° |
| 2026-05-04 12:45 | 39.06208 | -91.84487 | 34947 ft | 410 kts | 310° |
| 2026-05-04 12:45 | 39.10167 | -91.89779 | 34949 ft | 411 kts | 310° |
| 2026-05-04 12:46 | 39.14126 | -91.95081 | 34922 ft | 409 kts | 310° |
| 2026-05-04 12:46 | 39.16085 | -91.97705 | 34459 ft | 404 kts | 310° |
| 2026-05-04 12:46 | 39.18008 | -92.00283 | 34177 ft | 393 kts | 309° |
| 2026-05-04 12:46 | 39.19876 | -92.02787 | 33934 ft | 382 kts | 309° |
| 2026-05-04 12:47 | 39.21687 | -92.05220 | 33614 ft | 373 kts | 309° |
| 2026-05-04 12:47 | 39.23465 | -92.07614 | 33135 ft | 368 kts | 309° |
| 2026-05-04 12:47 | 39.25226 | -92.09989 | 32600 ft | 365 kts | 309° |
| 2026-05-04 12:47 | 39.26977 | -92.12353 | 32060 ft | 363 kts | 309° |
| 2026-05-04 12:48 | 39.28713 | -92.14697 | 31520 ft | 361 kts | 309° |
| 2026-05-04 12:48 | 39.30444 | -92.17034 | 31001 ft | 359 kts | 309° |
| 2026-05-04 12:48 | 39.32163 | -92.19357 | 30530 ft | 357 kts | 309° |
| 2026-05-04 12:48 | 39.33873 | -92.21670 | 30059 ft | 355 kts | 309° |
| 2026-05-04 12:49 | 39.35578 | -92.23977 | 29565 ft | 354 kts | 309° |
| 2026-05-04 12:49 | 39.37273 | -92.26272 | 29080 ft | 351 kts | 309° |
| 2026-05-04 12:49 | 39.38929 | -92.28515 | 28622 ft | 349 kts | 309° |
| 2026-05-04 12:49 | 39.40620 | -92.30807 | 28174 ft | 346 kts | 309° |
| 2026-05-04 12:50 | 39.42250 | -92.33019 | 27747 ft | 344 kts | 309° |
| 2026-05-04 12:50 | 39.43893 | -92.35251 | 27309 ft | 341 kts | 309° |
| 2026-05-04 12:50 | 39.45527 | -92.37471 | 26872 ft | 340 kts | 309° |
| 2026-05-04 12:50 | 39.47150 | -92.39679 | 26467 ft | 337 kts | 309° |
| 2026-05-04 12:51 | 39.48764 | -92.41875 | 26049 ft | 336 kts | 309° |
| 2026-05-04 12:51 | 39.50367 | -92.44059 | 25637 ft | 334 kts | 309° |
| 2026-05-04 12:51 | 39.51963 | -92.46234 | 25229 ft | 332 kts | 309° |
| 2026-05-04 12:51 | 39.53551 | -92.48400 | 24822 ft | 331 kts | 309° |
| 2026-05-04 12:52 | 39.55128 | -92.50553 | 24417 ft | 329 kts | 309° |
| 2026-05-04 12:52 | 39.56705 | -92.52706 | 24014 ft | 328 kts | 310° |
| 2026-05-04 12:52 | 39.58271 | -92.54846 | 23625 ft | 326 kts | 310° |
| 2026-05-04 12:52 | 39.59827 | -92.56975 | 23209 ft | 325 kts | 310° |
| 2026-05-04 12:53 | 39.61380 | -92.59100 | 22751 ft | 323 kts | 310° |
| 2026-05-04 12:53 | 39.62920 | -92.61209 | 22335 ft | 321 kts | 310° |
| 2026-05-04 12:53 | 39.64450 | -92.63304 | 21906 ft | 319 kts | 309° |
| 2026-05-04 12:53 | 39.65970 | -92.65388 | 21509 ft | 316 kts | 309° |
| 2026-05-04 12:54 | 39.67476 | -92.67454 | 21067 ft | 315 kts | 309° |
| 2026-05-04 12:54 | 39.68976 | -92.69513 | 20644 ft | 313 kts | 309° |
| 2026-05-04 12:54 | 39.70462 | -92.71556 | 20230 ft | 311 kts | 309° |
| 2026-05-04 12:54 | 39.71942 | -92.73589 | 19834 ft | 309 kts | 309° |
| 2026-05-04 12:55 | 39.73411 | -92.75610 | 19428 ft | 307 kts | 309° |
| 2026-05-04 12:55 | 39.74871 | -92.77622 | 19030 ft | 305 kts | 309° |
| 2026-05-04 12:55 | 39.76325 | -92.79627 | 18634 ft | 304 kts | 309° |
| 2026-05-04 12:55 | 39.77772 | -92.81622 | 18253 ft | 302 kts | 309° |
| 2026-05-04 12:56 | 39.79208 | -92.83604 | 17835 ft | 301 kts | 309° |
| 2026-05-04 12:56 | 39.80639 | -92.85579 | 17409 ft | 299 kts | 309° |
| 2026-05-04 12:56 | 39.82058 | -92.87540 | 16969 ft | 297 kts | 309° |
| 2026-05-04 12:56 | 39.83472 | -92.89495 | 16547 ft | 295 kts | 308° |
| 2026-05-04 12:57 | 39.84877 | -92.91437 | 16113 ft | 294 kts | 308° |
| 2026-05-04 12:57 | 39.86276 | -92.93375 | 15689 ft | 293 kts | 308° |
| 2026-05-04 12:57 | 39.87666 | -92.95300 | 15276 ft | 291 kts | 308° |
| 2026-05-04 12:57 | 39.89050 | -92.97218 | 14860 ft | 290 kts | 308° |
| 2026-05-04 12:58 | 39.90426 | -92.99125 | 14462 ft | 288 kts | 308° |
| 2026-05-04 12:58 | 39.91795 | -93.01025 | 14071 ft | 287 kts | 308° |
| 2026-05-04 12:58 | 39.93166 | -93.02932 | 13468 ft | 293 kts | 308° |
| 2026-05-04 12:58 | 39.94619 | -93.04963 | 13339 ft | 320 kts | 308° |
| 2026-05-04 12:59 | 39.96199 | -93.07173 | 13356 ft | 344 kts | 309° |
| 2026-05-04 12:59 | 39.97850 | -93.09470 | 12890 ft | 349 kts | 309° |
| 2026-05-04 12:59 | 39.99526 | -93.11797 | 11803 ft | 356 kts | 309° |
| 2026-05-04 12:59 | 40.01234 | -93.14174 | 10778 ft | 362 kts | 310° |
| 2026-05-04 13:00 | 40.02963 | -93.16582 | 10136 ft | 364 kts | 310° |
| 2026-05-04 13:00 | 40.04692 | -93.18990 | 9815 ft | 363 kts | 310° |
| 2026-05-04 13:00 | 40.06418 | -93.21398 | 9735 ft | 363 kts | 310° |
| 2026-05-04 13:00 | 40.08139 | -93.23802 | 9730 ft | 363 kts | 310° |
| 2026-05-04 13:01 | 40.09856 | -93.26203 | 9722 ft | 363 kts | 310° |
| 2026-05-04 13:01 | 40.11583 | -93.28621 | 9723 ft | 363 kts | 310° |
| 2026-05-04 13:01 | 40.13302 | -93.31031 | 9712 ft | 363 kts | 310° |
| 2026-05-04 13:01 | 40.15023 | -93.33443 | 9713 ft | 363 kts | 310° |
| 2026-05-04 13:02 | 40.16741 | -93.35855 | 9717 ft | 363 kts | 310° |
| 2026-05-04 13:02 | 40.18466 | -93.38278 | 9715 ft | 363 kts | 310° |
| 2026-05-04 13:02 | 40.20185 | -93.40694 | 9732 ft | 363 kts | 310° |
| 2026-05-04 13:02 | 40.21881 | -93.43082 | 9717 ft | 363 kts | 310° |
| 2026-05-04 13:03 | 40.23596 | -93.45497 | 9712 ft | 362 kts | 310° |
| 2026-05-04 13:03 | 40.25312 | -93.47914 | 9712 ft | 362 kts | 310° |
| 2026-05-04 13:03 | 40.27029 | -93.50335 | 9709 ft | 362 kts | 310° |
| 2026-05-04 13:03 | 40.28740 | -93.52751 | 9707 ft | 362 kts | 310° |
| 2026-05-04 13:04 | 40.30452 | -93.55169 | 9725 ft | 362 kts | 311° |
| 2026-05-04 13:04 | 40.32164 | -93.57589 | 9705 ft | 362 kts | 311° |
| 2026-05-04 13:04 | 40.33875 | -93.60010 | 9699 ft | 362 kts | 311° |
| 2026-05-04 13:04 | 40.35582 | -93.62431 | 9703 ft | 362 kts | 311° |
| 2026-05-04 13:05 | 40.37291 | -93.64850 | 9705 ft | 362 kts | 311° |
| 2026-05-04 13:05 | 40.39000 | -93.67273 | 9704 ft | 362 kts | 311° |
| 2026-05-04 13:05 | 40.40707 | -93.69695 | 9701 ft | 362 kts | 311° |
| 2026-05-04 13:05 | 40.42414 | -93.72120 | 9700 ft | 362 kts | 311° |
| 2026-05-04 13:06 | 40.44121 | -93.74548 | 9703 ft | 362 kts | 311° |
| 2026-05-04 13:06 | 40.45828 | -93.76975 | 9709 ft | 362 kts | 311° |
| 2026-05-04 13:06 | 40.47534 | -93.79404 | 9710 ft | 362 kts | 311° |
| 2026-05-04 13:06 | 40.49235 | -93.81830 | 9705 ft | 361 kts | 311° |
| 2026-05-04 13:07 | 40.50940 | -93.84260 | 9703 ft | 361 kts | 311° |
| 2026-05-04 13:07 | 40.52643 | -93.86690 | 9707 ft | 362 kts | 311° |
| 2026-05-04 13:07 | 40.54346 | -93.89124 | 9710 ft | 362 kts | 311° |
| 2026-05-04 13:07 | 40.56047 | -93.91555 | 9710 ft | 361 kts | 311° |
| 2026-05-04 13:08 | 40.57740 | -93.94000 | 9710 ft | 361 kts | 310° |
| 2026-05-04 13:08 | 40.59167 | -93.96618 | 9695 ft | 341 kts | 299° |
| 2026-05-04 13:08 | 40.60077 | -93.99402 | 9707 ft | 325 kts | 288° |
| 2026-05-04 13:08 | 40.60630 | -94.02271 | 9712 ft | 323 kts | 283° |
| 2026-05-04 13:09 | 40.61110 | -94.05163 | 9706 ft | 324 kts | 283° |
| 2026-05-04 13:09 | 40.61584 | -94.08066 | 9703 ft | 324 kts | 283° |
| 2026-05-04 13:09 | 40.62055 | -94.10944 | 9694 ft | 315 kts | 283° |
| 2026-05-04 13:09 | 40.62502 | -94.13661 | 9687 ft | 294 kts | 283° |
| 2026-05-04 13:10 | 40.62922 | -94.16210 | 9688 ft | 276 kts | 283° |
| 2026-05-04 13:10 | 40.63319 | -94.18608 | 9688 ft | 269 kts | 283° |
| 2026-05-04 13:10 | 40.63716 | -94.21017 | 9688 ft | 270 kts | 283° |
| 2026-05-04 13:10 | 40.64119 | -94.23463 | 9691 ft | 270 kts | 283° |
| 2026-05-04 13:11 | 40.64517 | -94.25875 | 9685 ft | 270 kts | 283° |
| 2026-05-04 13:11 | 40.64914 | -94.28287 | 9682 ft | 270 kts | 283° |
| 2026-05-04 13:11 | 40.65306 | -94.30670 | 9683 ft | 270 kts | 283° |
| 2026-05-04 13:11 | 40.65703 | -94.33086 | 9677 ft | 270 kts | 283° |
| 2026-05-04 13:12 | 40.66099 | -94.35499 | 9677 ft | 270 kts | 283° |
| 2026-05-04 13:12 | 40.66494 | -94.37916 | 9673 ft | 270 kts | 283° |
| 2026-05-04 13:12 | 40.66888 | -94.40332 | 9673 ft | 270 kts | 283° |
| 2026-05-04 13:12 | 40.67284 | -94.42751 | 9673 ft | 270 kts | 283° |
| 2026-05-04 13:13 | 40.67678 | -94.45167 | 9673 ft | 270 kts | 283° |
| 2026-05-04 13:13 | 40.68072 | -94.47590 | 9674 ft | 270 kts | 283° |
| 2026-05-04 13:13 | 40.68466 | -94.50005 | 9671 ft | 270 kts | 283° |
| 2026-05-04 13:13 | 40.68859 | -94.52422 | 9675 ft | 270 kts | 283° |
| 2026-05-04 13:14 | 40.69251 | -94.54842 | 9674 ft | 270 kts | 283° |
| 2026-05-04 13:14 | 40.69642 | -94.57257 | 9673 ft | 270 kts | 283° |
| 2026-05-04 13:14 | 40.70033 | -94.59674 | 9677 ft | 270 kts | 283° |
| 2026-05-04 13:14 | 40.70425 | -94.62096 | 9680 ft | 270 kts | 283° |
| 2026-05-04 13:15 | 40.70816 | -94.64518 | 9687 ft | 270 kts | 283° |
| 2026-05-04 13:15 | 40.71206 | -94.66936 | 9688 ft | 270 kts | 283° |
| 2026-05-04 13:15 | 40.71596 | -94.69358 | 9690 ft | 270 kts | 283° |
| 2026-05-04 13:15 | 40.71984 | -94.71778 | 9694 ft | 270 kts | 283° |
| 2026-05-04 13:16 | 40.72371 | -94.74195 | 9697 ft | 270 kts | 283° |
| 2026-05-04 13:16 | 40.72759 | -94.76618 | 9698 ft | 270 kts | 283° |
| 2026-05-04 13:16 | 40.73148 | -94.79045 | 9705 ft | 270 kts | 283° |
| 2026-05-04 13:16 | 40.73534 | -94.81460 | 9708 ft | 270 kts | 283° |
| 2026-05-04 13:17 | 40.73921 | -94.83888 | 9706 ft | 270 kts | 283° |
| 2026-05-04 13:17 | 40.74307 | -94.86316 | 9712 ft | 270 kts | 283° |
| 2026-05-04 13:17 | 40.74692 | -94.88739 | 9716 ft | 270 kts | 283° |
| 2026-05-04 13:17 | 40.75077 | -94.91162 | 9721 ft | 270 kts | 283° |
| 2026-05-04 13:18 | 40.75461 | -94.93588 | 9721 ft | 270 kts | 283° |
| 2026-05-04 13:18 | 40.75845 | -94.96008 | 9718 ft | 270 kts | 283° |
| 2026-05-04 13:18 | 40.76228 | -94.98434 | 9723 ft | 270 kts | 283° |
| 2026-05-04 13:18 | 40.76611 | -95.00856 | 9720 ft | 270 kts | 283° |
| 2026-05-04 13:19 | 40.76993 | -95.03278 | 9722 ft | 270 kts | 283° |
| 2026-05-04 13:19 | 40.77245 | -95.04881 | 9720 ft | 270 kts | 283° |
| 2026-05-04 13:19 | 40.77910 | -95.08070 | 9719 ft | 269 kts | 294° |
| 2026-05-04 13:19 | 40.78851 | -95.10190 | 9722 ft | 268 kts | 305° |
| 2026-05-04 13:20 | 40.79988 | -95.12136 | 9720 ft | 268 kts | 308° |
| 2026-05-04 13:20 | 40.81156 | -95.14055 | 9716 ft | 268 kts | 308° |
| 2026-05-04 13:20 | 40.82322 | -95.15971 | 9709 ft | 268 kts | 308° |
| 2026-05-04 13:20 | 40.83485 | -95.17891 | 9705 ft | 268 kts | 308° |
| 2026-05-04 13:21 | 40.84644 | -95.19811 | 9699 ft | 268 kts | 308° |
| 2026-05-04 13:21 | 40.85807 | -95.21743 | 9701 ft | 268 kts | 308° |
| 2026-05-04 13:21 | 40.86963 | -95.23667 | 9704 ft | 268 kts | 308° |
| 2026-05-04 13:21 | 40.88122 | -95.25596 | 9704 ft | 268 kts | 308° |
| 2026-05-04 13:22 | 40.89264 | -95.27501 | 9708 ft | 268 kts | 308° |
| 2026-05-04 13:22 | 40.90435 | -95.29455 | 9707 ft | 267 kts | 308° |
| 2026-05-04 13:22 | 40.91573 | -95.31355 | 9709 ft | 267 kts | 308° |
| 2026-05-04 13:22 | 40.92727 | -95.33284 | 9708 ft | 267 kts | 308° |
| 2026-05-04 13:23 | 40.93879 | -95.35211 | 9708 ft | 267 kts | 308° |
| 2026-05-04 13:23 | 40.95029 | -95.37133 | 9708 ft | 267 kts | 308° |
| 2026-05-04 13:23 | 40.96181 | -95.39063 | 9699 ft | 267 kts | 308° |
| 2026-05-04 13:23 | 40.97331 | -95.40990 | 9305 ft | 267 kts | 308° |
| 2026-05-04 13:24 | 40.98481 | -95.42915 | 8880 ft | 266 kts | 308° |
| 2026-05-04 13:24 | 40.99619 | -95.44824 | 8475 ft | 264 kts | 308° |
| 2026-05-04 13:24 | 41.00751 | -95.46725 | 8074 ft | 262 kts | 308° |
| 2026-05-04 13:25 | 41.02996 | -95.50498 | 7276 ft | 260 kts | 308° |
| 2026-05-04 13:25 | 41.04111 | -95.52372 | 6884 ft | 259 kts | 307° |
| 2026-05-04 13:25 | 41.05221 | -95.54242 | 6516 ft | 257 kts | 307° |
| 2026-05-04 13:25 | 41.06323 | -95.56102 | 6118 ft | 256 kts | 307° |
| 2026-05-04 13:26 | 41.07053 | -95.57333 | 5827 ft | 256 kts | 307° |
| 2026-05-04 13:26 | 41.08154 | -95.59191 | 5354 ft | 257 kts | 307° |
| 2026-05-04 13:26 | 41.09260 | -95.61058 | 4943 ft | 258 kts | 307° |
| 2026-05-04 13:26 | 41.10371 | -95.62931 | 4534 ft | 258 kts | 307° |
| 2026-05-04 13:27 | 41.11453 | -95.64755 | 4214 ft | 243 kts | 306° |
| 2026-05-04 13:27 | 41.12470 | -95.66474 | 4048 ft | 233 kts | 306° |
| 2026-05-04 13:27 | 41.13455 | -95.68142 | 3890 ft | 228 kts | 306° |
| 2026-05-04 13:27 | 41.14431 | -95.69800 | 3612 ft | 229 kts | 306° |
| 2026-05-04 13:28 | 41.15406 | -95.71450 | 3119 ft | 227 kts | 306° |
| 2026-05-04 13:28 | 41.16372 | -95.73116 | 2669 ft | 231 kts | 302° |
| 2026-05-04 13:28 | 41.17173 | -95.74950 | 2533 ft | 225 kts | 297° |
| 2026-05-04 13:28 | 41.17960 | -95.76669 | 2500 ft | 212 kts | 299° |
| 2026-05-04 13:29 | 41.18760 | -95.78299 | 2490 ft | 212 kts | 304° |
| 2026-05-04 13:29 | 41.19822 | -95.79662 | 2491 ft | 214 kts | 320° |
| 2026-05-04 13:29 | 41.21048 | -95.80778 | 2488 ft | 214 kts | 322° |
| 2026-05-04 13:29 | 41.22262 | -95.81916 | 2491 ft | 210 kts | 320° |
| 2026-05-04 13:30 | 41.23401 | -95.83010 | 2430 ft | 196 kts | 320° |
| 2026-05-04 13:30 | 41.24491 | -95.84056 | 2200 ft | 193 kts | 320° |
| 2026-05-04 13:30 | 41.25579 | -95.85091 | 1934 ft | 192 kts | 321° |
| 2026-05-04 13:30 | 41.26634 | -95.86092 | 1692 ft | 178 kts | 323° |
| 2026-05-04 13:31 | 41.27586 | -95.86996 | 1434 ft | 158 kts | 324° |
| 2026-05-04 13:31 | 41.28456 | -95.87823 | 1219 ft | 151 kts | 324° |
| 2026-05-04 13:31 | 41.29303 | -95.88629 | 1023 ft | 150 kts | 324° |
| 2026-05-04 13:31 | 41.30085 | -95.89375 | 996 ft | 114 kts | 325° |
| 2026-05-04 13:32 | 41.30629 | -95.89890 | 999 ft | 82 kts | 324° |
| 2026-05-04 13:32 | 41.30930 | -95.90177 | 997 ft | 32 kts | 322° |
| 2026-05-04 13:32 | 41.31036 | -95.90340 | 999 ft | 12 kts | 249° |
| 2026-05-04 13:32 | 41.30994 | -95.90429 | 997 ft | 11 kts | 230° |
| 2026-05-04 13:33 | 41.30981 | -95.90449 | 999 ft | 4 kts | 230° |
| 2026-05-04 13:33 | 41.30968 | -95.90516 | 997 ft | 8 kts | 284° |
| 2026-05-04 13:33 | 41.30993 | -95.90561 | 998 ft | 4 kts | 301° |
| 2026-05-04 13:33 | 41.30996 | -95.90587 | 999 ft | 3 kts | 270° |
| 2026-05-04 13:34 | 41.30976 | -95.90654 | 1003 ft | 12 kts | 237° |
| 2026-05-04 13:34 | 41.30922 | -95.90755 | 1000 ft | 9 kts | 231° |
| 2026-05-04 13:34 | 41.30885 | -95.90752 | 1000 ft | 5 kts | 146° |
| 2026-05-04 13:34 | 41.30873 | -95.90741 | 1003 ft | 0 kts | 143° |